createdAt,value
2019-05-01T00:01:22.786Z,5.83
2019-05-01T00:04:50.010Z,5.78
2019-05-01T00:07:55.230Z,5.72
2019-05-01T00:11:00.379Z,5.74
2019-05-01T00:14:06.132Z,5.85
2019-05-01T00:17:12.206Z,5.75
2019-05-01T00:20:17.723Z,5.69
2019-05-01T00:23:22.947Z,5.62
2019-05-01T00:26:28.111Z,5.61
2019-05-01T00:29:33.349Z,5.54
2019-05-01T00:32:38.474Z,5.56
2019-05-01T00:35:43.737Z,5.59
2019-05-01T00:38:49.889Z,5.51
2019-05-01T00:41:55.107Z,5.36
2019-05-01T00:45:00.244Z,5.39
2019-05-01T00:48:05.433Z,5.41
2019-05-01T00:51:10.619Z,5.39
2019-05-01T00:54:15.877Z,5.28
2019-05-01T00:57:30.482Z,5.24
2019-05-01T01:01:09.869Z,5.23
2019-05-01T01:04:17.669Z,5.12
2019-05-01T01:07:22.853Z,5.10
2019-05-01T01:10:28.042Z,5.09
2019-05-01T01:13:33.293Z,5.13
2019-05-01T01:16:38.523Z,4.95
2019-05-01T01:19:43.818Z,4.90
2019-05-01T01:22:49.063Z,4.87
2019-05-01T01:25:54.469Z,4.87
2019-05-01T01:28:59.586Z,5.02
2019-05-01T01:32:04.957Z,4.98
2019-05-01T01:35:10.262Z,4.82
2019-05-01T01:38:15.552Z,4.83
2019-05-01T01:41:20.816Z,4.66
2019-05-01T01:44:51.243Z,4.68
2019-05-01T01:48:11.328Z,4.65
2019-05-01T01:51:16.738Z,4.65
2019-05-01T01:54:21.889Z,4.66
2019-05-01T01:57:27.335Z,4.61
2019-05-01T02:00:43.818Z,4.57
2019-05-01T02:03:53.150Z,4.64
2019-05-01T02:06:59.540Z,4.63
2019-05-01T02:10:06.247Z,4.71
2019-05-01T02:13:11.714Z,4.65
2019-05-01T02:16:16.879Z,4.55
2019-05-01T02:19:22.078Z,4.53
2019-05-01T02:22:27.305Z,4.52
2019-05-01T02:25:34.110Z,4.49
2019-05-01T02:29:01.312Z,4.44
2019-05-01T02:32:07.067Z,4.51
2019-05-01T02:35:12.439Z,4.54
2019-05-01T02:38:18.521Z,4.52
2019-05-01T02:41:25.747Z,4.44
2019-05-01T02:44:44.781Z,4.41
2019-05-01T02:47:50.493Z,4.28
2019-05-01T02:50:59.407Z,4.35
2019-05-01T02:54:04.887Z,4.39
2019-05-01T02:57:13.673Z,4.41
2019-05-01T03:00:18.792Z,4.47
2019-05-01T03:03:23.926Z,4.36
2019-05-01T03:06:31.877Z,4.32
2019-05-01T03:09:38.879Z,4.34
2019-05-01T03:12:47.065Z,4.27
2019-05-01T03:15:52.841Z,4.19
2019-05-01T03:19:00.621Z,4.05
2019-05-01T03:22:11.835Z,4.10
2019-05-01T03:25:17.074Z,4.24
2019-05-01T03:28:22.966Z,4.39
2019-05-01T03:31:28.238Z,4.37
2019-05-01T03:34:33.914Z,4.51
2019-05-01T03:37:39.127Z,4.27
2019-05-01T03:40:44.628Z,4.18
2019-05-01T03:43:50.721Z,4.16
2019-05-01T03:46:55.907Z,4.31
2019-05-01T03:50:01.319Z,4.19
2019-05-01T03:53:06.644Z,4.17
2019-05-01T03:56:12.173Z,4.05
2019-05-01T03:59:18.005Z,3.95
2019-05-01T04:02:45.894Z,4.00
2019-05-01T04:05:51.224Z,4.11
2019-05-01T04:08:56.538Z,4.09
2019-05-01T04:12:02.245Z,4.11
2019-05-01T04:15:07.773Z,4.13
2019-05-01T04:18:13.159Z,4.13
2019-05-01T04:21:21.462Z,4.23
2019-05-01T04:24:27.061Z,4.20
2019-05-01T04:27:34.877Z,4.48
2019-05-01T04:31:05.570Z,4.68
2019-05-01T04:34:21.635Z,4.88
2019-05-01T04:37:26.786Z,5.20
2019-05-01T04:40:31.930Z,5.38
2019-05-01T04:43:37.213Z,5.54
2019-05-01T04:46:42.464Z,5.88
2019-05-01T04:49:47.795Z,5.93
2019-05-01T04:52:53.334Z,6.14
2019-05-01T04:55:58.951Z,6.60
2019-05-01T04:59:04.477Z,6.76
2019-05-01T05:02:11.939Z,6.84
2019-05-01T05:05:17.945Z,7.01
2019-05-01T05:08:23.229Z,7.36
2019-05-01T05:11:31.364Z,7.57
2019-05-01T05:14:38.251Z,8.20
2019-05-01T05:17:43.433Z,7.87
2019-05-01T05:20:49.695Z,7.97
2019-05-01T05:23:55.218Z,8.34
2019-05-01T05:27:00.721Z,8.37
2019-05-01T05:30:06.187Z,8.47
2019-05-01T05:33:18.625Z,8.44
2019-05-01T05:36:20.071Z,8.47
2019-05-01T05:39:41.916Z,8.48
2019-05-01T05:42:47.182Z,8.89
2019-05-01T05:45:52.490Z,9.00
2019-05-01T05:48:57.983Z,9.10
2019-05-01T05:52:21.553Z,9.29
2019-05-01T05:55:36.565Z,9.34
2019-05-01T05:58:48.958Z,9.92
2019-05-01T06:02:14.644Z,10.43
2019-05-01T06:05:48.103Z,9.75
2019-05-01T06:08:56.182Z,10.53
2019-05-01T06:12:15.652Z,9.99
2019-05-01T06:15:28.283Z,10.21
2019-05-01T06:18:48.794Z,9.61
2019-05-01T06:22:24.271Z,9.88
2019-05-01T06:25:34.495Z,10.07
2019-05-01T06:28:39.620Z,10.56
2019-05-01T06:31:45.201Z,10.62
2019-05-01T06:34:50.471Z,10.42
2019-05-01T06:38:02.250Z,10.85
2019-05-01T06:41:07.633Z,11.08
2019-05-01T06:44:33.547Z,11.17
2019-05-01T06:47:58.338Z,10.59
2019-05-01T06:51:28.736Z,10.95
2019-05-01T06:54:35.839Z,11.29
2019-05-01T06:57:43.968Z,12.06
2019-05-01T07:00:49.831Z,11.77
2019-05-01T07:04:03.613Z,11.89
2019-05-01T07:07:06.945Z,11.78
2019-05-01T07:10:12.324Z,11.45
2019-05-01T07:13:18.064Z,12.27
2019-05-01T07:16:23.491Z,12.51
2019-05-01T07:19:47.484Z,12.36
2019-05-01T07:22:53.211Z,12.54
2019-05-01T07:25:58.627Z,12.57
2019-05-01T07:29:09.887Z,12.31
2019-05-01T07:32:15.122Z,12.70
2019-05-01T07:35:20.737Z,13.31
2019-05-01T07:38:25.973Z,13.74
2019-05-01T07:41:33.999Z,13.93
2019-05-01T07:44:43.592Z,14.12
2019-05-01T07:47:49.456Z,14.63
2019-05-01T07:50:54.746Z,14.85
2019-05-01T07:54:04.007Z,15.04
2019-05-01T07:57:07.457Z,14.28
2019-05-01T08:00:23.964Z,14.97
2019-05-01T08:03:29.102Z,15.43
2019-05-01T08:06:34.376Z,15.09
2019-05-01T08:09:39.530Z,15.45
2019-05-01T08:12:45.203Z,15.47
2019-05-01T08:15:50.544Z,15.43
2019-05-01T08:19:04.003Z,16.16
2019-05-01T08:22:15.589Z,16.34
2019-05-01T08:25:20.765Z,16.46
2019-05-01T08:28:42.905Z,16.80
2019-05-01T08:32:12.837Z,16.88
2019-05-01T08:35:20.181Z,17.30
2019-05-01T08:38:25.417Z,17.14
2019-05-01T08:41:32.008Z,17.69
2019-05-01T08:44:50.074Z,18.25
2019-05-01T08:48:12.388Z,17.74
2019-05-01T08:51:17.674Z,18.25
2019-05-01T08:54:22.901Z,18.61
2019-05-01T08:57:29.170Z,18.53
2019-05-01T09:00:36.415Z,18.53
2019-05-01T09:03:41.927Z,19.41
2019-05-01T09:06:47.079Z,19.58
2019-05-01T09:09:52.199Z,20.33
2019-05-01T09:12:57.354Z,19.93
2019-05-01T09:16:02.506Z,20.47
2019-05-01T09:19:07.621Z,20.35
2019-05-01T09:22:12.802Z,21.33
2019-05-01T09:25:21.450Z,21.70
2019-05-01T09:28:31.036Z,21.82
2019-05-01T09:31:36.747Z,21.64
2019-05-01T09:34:41.900Z,21.67
2019-05-01T09:37:47.206Z,21.94
2019-05-01T09:40:52.450Z,22.49
2019-05-01T09:43:58.718Z,21.33
2019-05-01T09:47:05.558Z,20.71
2019-05-01T09:50:10.988Z,20.20
2019-05-01T09:53:34.318Z,19.64
2019-05-01T09:56:38.917Z,18.71
2019-05-01T09:59:44.573Z,18.45
2019-05-01T10:02:49.750Z,18.00
2019-05-01T10:05:54.941Z,18.00
2019-05-01T10:09:00.147Z,17.67
2019-05-01T10:12:05.298Z,17.61
2019-05-01T10:15:10.469Z,17.72
2019-05-01T10:18:15.734Z,17.77
2019-05-01T10:21:27.316Z,17.88
2019-05-01T10:24:32.229Z,17.83
2019-05-01T10:27:40.954Z,18.50
2019-05-01T10:30:59.459Z,18.36
2019-05-01T10:34:14.044Z,18.75
2019-05-01T10:37:19.273Z,18.86
2019-05-01T10:40:27.050Z,18.99
2019-05-01T10:43:31.436Z,19.23
2019-05-01T10:46:36.576Z,19.25
2019-05-01T10:49:41.760Z,19.71
2019-05-01T10:52:46.969Z,19.77
2019-05-01T10:55:52.219Z,19.87
2019-05-01T10:58:57.385Z,19.73
2019-05-01T11:02:04.398Z,19.94
2019-05-01T11:05:09.701Z,20.38
2019-05-01T11:08:14.999Z,21.35
2019-05-01T11:11:20.158Z,21.61
2019-05-01T11:14:25.381Z,20.83
2019-05-01T11:17:30.612Z,20.74
2019-05-01T11:20:35.948Z,20.29
2019-05-01T11:23:41.658Z,20.64
2019-05-01T11:26:52.925Z,20.84
2019-05-01T11:29:58.239Z,20.83
2019-05-01T11:33:26.814Z,21.61
2019-05-01T11:36:52.448Z,22.34
2019-05-01T11:40:05.144Z,22.25
2019-05-01T11:43:10.263Z,22.07
2019-05-01T11:46:15.409Z,22.05
2019-05-01T11:49:21.655Z,21.27
2019-05-01T11:52:26.836Z,21.88
2019-05-01T11:55:32.086Z,22.64
2019-05-01T11:58:37.293Z,23.08
2019-05-01T12:01:42.487Z,23.16
2019-05-01T12:04:47.714Z,22.73
2019-05-01T12:07:52.883Z,23.31
2019-05-01T12:10:58.804Z,23.17
2019-05-01T12:14:04.004Z,22.77
2019-05-01T12:17:26.549Z,22.74
2019-05-01T12:20:31.874Z,22.27
2019-05-01T12:23:37.089Z,22.97
2019-05-01T12:26:42.347Z,22.89
2019-05-01T12:29:47.549Z,23.10
2019-05-01T12:32:52.679Z,23.06
2019-05-01T12:35:59.553Z,22.36
2019-05-01T12:39:08.863Z,22.60
2019-05-01T12:42:16.544Z,22.43
2019-05-01T12:45:23.187Z,21.37
2019-05-01T12:48:28.368Z,21.29
2019-05-01T12:51:34.191Z,22.43
2019-05-01T12:54:58.079Z,22.42
2019-05-01T12:58:03.138Z,22.73
2019-05-01T13:01:08.331Z,22.69
2019-05-01T13:04:13.519Z,21.86
2019-05-01T13:07:19.027Z,21.79
2019-05-01T13:10:24.160Z,22.70
2019-05-01T13:13:29.368Z,22.56
2019-05-01T13:16:34.535Z,22.95
2019-05-01T13:19:39.716Z,22.70
2019-05-01T13:22:45.002Z,22.06
2019-05-01T13:25:51.280Z,21.79
2019-05-01T13:29:21.270Z,22.58
2019-05-01T13:32:43.777Z,21.55
2019-05-01T13:35:48.936Z,21.43
2019-05-01T13:38:54.093Z,21.37
2019-05-01T13:41:59.331Z,21.22
2019-05-01T13:45:05.064Z,21.19
2019-05-01T13:48:10.386Z,20.88
2019-05-01T13:51:15.584Z,20.92
2019-05-01T13:54:20.784Z,20.97
2019-05-01T13:57:26.035Z,20.38
2019-05-01T14:00:31.223Z,20.65
2019-05-01T14:03:36.534Z,20.59
2019-05-01T14:06:42.731Z,20.06
2019-05-01T14:09:48.106Z,20.14
2019-05-01T14:12:53.401Z,20.57
2019-05-01T14:15:58.568Z,20.68
2019-05-01T14:19:04.015Z,21.00
2019-05-01T14:22:34.118Z,20.96
2019-05-01T14:25:56.885Z,20.73
2019-05-01T14:29:02.123Z,20.77
2019-05-01T14:32:07.345Z,20.45
2019-05-01T14:35:13.079Z,20.88
2019-05-01T14:38:18.221Z,21.00
2019-05-01T14:41:23.420Z,20.97
2019-05-01T14:44:36.547Z,21.15
2019-05-01T14:47:35.475Z,20.87
2019-05-01T14:50:43.758Z,20.69
2019-05-01T14:53:49.003Z,20.67
2019-05-01T14:56:54.231Z,20.59
2019-05-01T14:59:59.333Z,20.40
2019-05-01T15:03:04.714Z,20.26
2019-05-01T15:06:09.920Z,20.27
2019-05-01T15:09:15.145Z,20.12
2019-05-01T15:12:20.346Z,20.21
2019-05-01T15:15:59.684Z,20.33
2019-05-01T15:19:08.585Z,20.37
2019-05-01T15:22:13.705Z,20.28
2019-05-01T15:25:18.905Z,20.72
2019-05-01T15:28:24.144Z,20.67
2019-05-01T15:31:29.341Z,20.97
2019-05-01T15:34:34.442Z,21.24
2019-05-01T15:37:39.764Z,21.00
2019-05-01T15:40:55.734Z,20.95
2019-05-01T15:44:20.746Z,21.20
2019-05-01T15:47:26.000Z,22.10
2019-05-01T15:50:31.251Z,22.04
2019-05-01T15:53:36.564Z,22.09
2019-05-01T15:56:41.663Z,21.91
2019-05-01T15:59:46.920Z,21.60
2019-05-01T16:02:52.154Z,21.37
2019-05-01T16:05:57.269Z,20.81
2019-05-01T16:09:02.390Z,20.64
2019-05-01T16:12:22.584Z,20.46
2019-05-01T16:15:35.098Z,20.72
2019-05-01T16:18:40.337Z,20.69
2019-05-01T16:21:45.572Z,20.59
2019-05-01T16:24:50.711Z,20.64
2019-05-01T16:27:55.951Z,20.56
2019-05-01T16:31:01.133Z,20.47
2019-05-01T16:34:06.430Z,20.13
2019-05-01T16:37:11.582Z,19.72
2019-05-01T16:40:34.321Z,19.34
2019-05-01T16:43:39.596Z,19.21
2019-05-01T16:46:44.808Z,18.79
2019-05-01T16:49:49.970Z,18.43
2019-05-01T16:52:55.353Z,18.29
2019-05-01T16:56:00.616Z,18.16
2019-05-01T16:59:05.839Z,18.01
2019-05-01T17:02:30.206Z,18.03
2019-05-01T17:05:56.772Z,17.75
2019-05-01T17:09:26.221Z,17.59
2019-05-01T17:12:35.423Z,17.22
2019-05-01T17:15:45.895Z,17.21
2019-05-01T17:18:51.191Z,17.10
2019-05-01T17:21:56.365Z,16.91
2019-05-01T17:25:01.612Z,16.90
2019-05-01T17:28:08.561Z,16.75
2019-05-01T17:31:13.667Z,16.57
2019-05-01T17:34:18.848Z,16.41
2019-05-01T17:37:24.070Z,16.41
2019-05-01T17:40:29.339Z,16.36
2019-05-01T17:43:34.565Z,16.19
2019-05-01T17:46:41.982Z,16.19
2019-05-01T17:49:46.738Z,16.14
2019-05-01T17:52:51.982Z,16.17
2019-05-01T17:55:57.255Z,16.06
2019-05-01T17:59:02.466Z,16.06
2019-05-01T18:02:26.751Z,15.79
2019-05-01T18:05:50.854Z,15.72
2019-05-01T18:09:02.785Z,15.84
2019-05-01T18:12:03.074Z,15.79
2019-05-01T18:15:08.318Z,15.62
2019-05-01T18:18:15.074Z,15.51
2019-05-01T18:21:20.469Z,15.45
2019-05-01T18:24:47.402Z,15.33
2019-05-01T18:28:07.254Z,15.23
2019-05-01T18:31:17.615Z,15.19
2019-05-01T18:34:22.989Z,14.99
2019-05-01T18:37:35.136Z,14.88
2019-05-01T18:40:43.731Z,14.69
2019-05-01T18:43:48.941Z,14.63
2019-05-01T18:46:54.394Z,14.48
2019-05-01T18:49:59.608Z,14.35
2019-05-01T18:53:06.771Z,14.18
2019-05-01T18:56:11.705Z,14.05
2019-05-01T18:59:16.843Z,13.95
2019-05-01T19:02:24.960Z,13.77
2019-05-01T19:05:28.974Z,13.58
2019-05-01T19:08:34.257Z,13.54
2019-05-01T19:11:39.507Z,13.38
2019-05-01T19:14:44.729Z,13.39
2019-05-01T19:17:49.987Z,13.21
2019-05-01T19:20:59.778Z,12.96
2019-05-01T19:24:02.781Z,12.81
2019-05-01T19:27:09.175Z,12.62
2019-05-01T19:30:16.827Z,12.48
2019-05-01T19:33:22.341Z,12.36
2019-05-01T19:36:27.555Z,12.30
2019-05-01T19:39:42.938Z,12.45
2019-05-01T19:42:40.311Z,12.47
2019-05-01T19:45:45.763Z,12.69
2019-05-01T19:48:52.636Z,12.54
2019-05-01T19:52:00.656Z,12.37
2019-05-01T19:55:06.374Z,12.27
2019-05-01T19:58:12.752Z,12.22
2019-05-01T20:01:18.213Z,12.06
2019-05-01T20:04:23.626Z,11.92
2019-05-01T20:07:30.656Z,11.76
2019-05-01T20:10:35.942Z,11.64
2019-05-01T20:13:41.461Z,11.48
2019-05-01T20:16:46.925Z,11.39
2019-05-01T20:19:52.211Z,11.43
2019-05-01T20:22:57.516Z,11.31
2019-05-01T20:26:02.810Z,11.23
2019-05-01T20:29:08.117Z,11.14
2019-05-01T20:32:13.311Z,11.04
2019-05-01T20:35:18.528Z,10.81
2019-05-01T20:38:23.712Z,10.77
2019-05-01T20:41:28.873Z,10.68
2019-05-01T20:44:34.151Z,10.47
2019-05-01T20:47:45.130Z,10.34
2019-05-01T20:50:46.180Z,10.30
2019-05-01T20:53:51.356Z,10.29
2019-05-01T20:57:13.513Z,10.14
2019-05-01T21:00:20.883Z,10.07
2019-05-01T21:03:26.275Z,10.00
2019-05-01T21:06:34.374Z,9.99
2019-05-01T21:09:47.805Z,10.05
2019-05-01T21:12:48.754Z,9.90
2019-05-01T21:15:56.237Z,9.83
2019-05-01T21:19:00.925Z,9.78
2019-05-01T21:22:06.132Z,9.75
2019-05-01T21:25:11.379Z,9.66
2019-05-01T21:28:16.522Z,9.62
2019-05-01T21:31:23.896Z,9.57
2019-05-01T21:34:28.519Z,9.62
2019-05-01T21:37:33.661Z,9.56
2019-05-01T21:40:41.139Z,9.55
2019-05-01T21:43:45.773Z,9.55
2019-05-01T21:46:50.936Z,9.57
2019-05-01T21:49:56.142Z,9.56
2019-05-01T21:53:03.213Z,9.48
2019-05-01T21:56:08.259Z,9.58
2019-05-01T21:59:15.074Z,9.51
2019-05-01T22:02:20.343Z,9.48
2019-05-01T22:05:25.491Z,9.33
2019-05-01T22:08:34.514Z,9.28
2019-05-01T22:11:38.877Z,9.15
2019-05-01T22:14:49.806Z,9.06
2019-05-01T22:18:06.664Z,8.98
2019-05-01T22:21:18.096Z,8.91
2019-05-01T22:24:45.244Z,8.79
2019-05-01T22:27:59.243Z,8.78
2019-05-01T22:31:26.147Z,8.73
2019-05-01T22:34:44.985Z,8.68
2019-05-01T22:37:50.279Z,8.58
2019-05-01T22:41:06.675Z,8.49
2019-05-01T22:44:07.427Z,8.31
2019-05-01T22:47:14.991Z,8.19
2019-05-01T22:50:20.489Z,8.11
2019-05-01T22:53:25.676Z,8.00
2019-05-01T22:56:30.892Z,7.95
2019-05-01T22:59:36.103Z,8.03
2019-05-01T23:02:41.992Z,8.10
2019-05-01T23:05:47.077Z,7.95
2019-05-01T23:08:52.337Z,7.76
2019-05-01T23:11:57.575Z,7.58
2019-05-01T23:15:05.182Z,7.58
2019-05-01T23:18:15.585Z,7.47
2019-05-01T23:21:18.309Z,7.55
2019-05-01T23:24:23.594Z,7.55
2019-05-01T23:27:29.216Z,7.52
2019-05-01T23:30:35.614Z,7.44
2019-05-01T23:33:40.759Z,7.44
2019-05-01T23:36:45.916Z,7.35
2019-05-01T23:39:51.136Z,7.26
2019-05-01T23:42:56.354Z,7.17
2019-05-01T23:46:01.503Z,7.09
2019-05-01T23:49:06.705Z,7.01
2019-05-01T23:52:11.902Z,7.00
2019-05-01T23:55:17.064Z,7.37
2019-05-01T23:58:22.265Z,7.22
